Strona główna
METAR-TAF:

METAR-TAF

Lotnisko :

Port lotniczy Rundu

Rundu, Namibia

Szerokość geograficzna: 17-57-20S, Długość geograficzna: 019-43-25E, wysokość: 1106 m

Aktualna obserwacja pogody

Raport powstał 32 minut temu, godzina 12:00 UTC
Wiatr 10 kt od wschodnio-północny wschód
Temperatura 23°C
Wilgotność 15%
Ciśnienie 1025 hPa

METAR: FYRU 311200Z AUTO 07010KT //// // ////// 23/M05 Q1025

czas: 14:32 (12:32 UTC)

Prognoza

Raport powstał 1 godzina i 32 minut temu, godzina 11:00 UTC
Prognoza ważna od 31 godzina 12 UTC do 31 godzina 21 UTC
Wiatr 10 kt od wschód
Widzialność 10 km lub więcej
Brak chmur poniżej 1500 m i brak chmur cumulonimbus

TAF: FYRU 311100Z 3112/3121 09010KT CAVOK

Obserwacja i prognoza pogody dla ponad 4000 lotnisk (raport METAR i TAF).

Dostępne stacje oznaczono żółtymi i czerwonymi punktami na mapie.

Najedź kursorem aby zobaczyć nazwę stacji.

Kliknij aby zobaczyć obserwacje i prognozy pogody.

Aby zmienić mapę: kliknij na zielony przycisk z czarnym krzyżykiem, aby powiększyć; na zielony przycisk z myślnikiem, aby pomniejszyć; na zielone strzałki, aby przejść do map sąsiednich.


METAR-TAF: